createdAt,value
2022-07-27T00:01:16.938Z,100074.66
2022-07-27T00:03:46.449Z,100078.33
2022-07-27T00:06:15.269Z,100078.04
2022-07-27T00:08:43.748Z,100078.17
2022-07-27T00:11:14.352Z,100075.27
2022-07-27T00:13:42.834Z,100076.30
2022-07-27T00:16:11.401Z,100075.73
2022-07-27T00:18:40.100Z,100076.18
2022-07-27T00:21:08.664Z,100076.32
2022-07-27T00:23:36.963Z,100072.96
2022-07-27T00:26:05.134Z,100079.27
2022-07-27T00:28:33.717Z,100076.73
2022-07-27T00:31:02.188Z,100077.80
2022-07-27T00:33:30.608Z,100077.52
2022-07-27T00:35:59.197Z,100075.71
2022-07-27T00:38:27.950Z,100071.65
2022-07-27T00:40:56.256Z,100074.92
2022-07-27T00:43:25.121Z,100079.80
2022-07-27T00:45:53.595Z,100082.67
2022-07-27T00:48:22.280Z,100083.20
2022-07-27T00:50:52.560Z,100083.15
2022-07-27T00:53:21.360Z,100080.66
2022-07-27T00:55:50.498Z,100086.86
2022-07-27T00:58:19.278Z,100085.44
2022-07-27T01:00:47.657Z,100090.40
2022-07-27T01:03:16.569Z,100092.83
2022-07-27T01:05:45.251Z,100090.73
2022-07-27T01:08:14.769Z,100096.96
2022-07-27T01:10:44.761Z,100098.98
2022-07-27T01:13:15.895Z,100097.30
2022-07-27T01:15:44.922Z,100098.92
2022-07-27T01:18:27.480Z,100097.73
2022-07-27T01:20:56.218Z,100098.43
2022-07-27T01:23:25.675Z,100096.11
2022-07-27T01:25:54.817Z,100094.91
2022-07-27T01:28:23.442Z,100093.69
2022-07-27T01:30:51.869Z,100095.34
2022-07-27T01:33:26.216Z,100097.29
2022-07-27T01:35:56.937Z,100092.30
2022-07-27T01:38:25.890Z,100090.80
2022-07-27T01:40:55.149Z,100091.02
2022-07-27T01:43:24.904Z,100091.77
2022-07-27T01:45:53.392Z,100085.12
2022-07-27T01:48:22.517Z,100088.27
2022-07-27T01:50:51.573Z,100086.27
2022-07-27T01:53:21.251Z,100086.17
2022-07-27T01:55:50.778Z,100082.97
2022-07-27T01:58:19.660Z,100085.73
2022-07-27T02:00:49.130Z,100087.34
2022-07-27T02:03:17.632Z,100084.91
2022-07-27T02:05:46.322Z,100082.05
2022-07-27T02:08:14.887Z,100078.19
2022-07-27T02:11:01.822Z,100082.20
2022-07-27T02:13:30.227Z,100080.51
2022-07-27T02:15:58.789Z,100083.68
2022-07-27T02:18:33.262Z,100077.29
2022-07-27T02:21:06.202Z,100074.73
2022-07-27T02:23:35.784Z,100072.80
2022-07-27T02:26:06.508Z,100068.73
2022-07-27T02:28:35.808Z,100065.68
2022-07-27T02:31:04.703Z,100069.81
2022-07-27T02:33:33.634Z,100069.50
2022-07-27T02:36:02.060Z,100064.86
2022-07-27T02:38:30.338Z,100062.67
2022-07-27T02:40:58.711Z,100066.92
2022-07-27T02:43:27.259Z,100067.48
2022-07-27T02:45:55.693Z,100066.59
2022-07-27T02:48:24.117Z,100068.44
2022-07-27T02:50:53.187Z,100064.31
2022-07-27T02:53:21.538Z,100068.84
2022-07-27T02:55:49.862Z,100070.54
2022-07-27T02:58:18.222Z,100073.58
2022-07-27T03:00:46.583Z,100075.20
2022-07-27T03:03:15.180Z,100082.39
2022-07-27T03:05:43.581Z,100082.11
2022-07-27T03:08:12.091Z,100078.01
2022-07-27T03:10:40.326Z,100081.83
2022-07-27T03:13:08.652Z,100080.14
2022-07-27T03:15:37.406Z,100082.66
2022-07-27T03:18:05.687Z,100081.07
2022-07-27T03:20:34.045Z,100083.15
2022-07-27T03:23:02.456Z,100082.60
2022-07-27T03:25:30.822Z,100083.30
2022-07-27T03:28:03.658Z,100086.64
2022-07-27T03:30:33.651Z,100087.45
2022-07-27T03:33:02.147Z,100086.98
2022-07-27T03:35:30.533Z,100090.06
2022-07-27T03:37:58.805Z,100092.30
2022-07-27T03:40:29.726Z,100098.27
2022-07-27T03:42:58.552Z,100094.58
2022-07-27T03:45:27.283Z,100097.11
2022-07-27T03:47:55.761Z,100092.74
2022-07-27T03:50:24.362Z,100094.30
2022-07-27T03:52:53.218Z,100085.24
2022-07-27T03:55:22.523Z,100084.00
2022-07-27T03:57:52.487Z,100085.29
2022-07-27T04:00:20.919Z,100086.48
2022-07-27T04:02:50.569Z,100085.52
2022-07-27T04:05:20.984Z,100085.92
2022-07-27T04:07:52.103Z,100087.45
2022-07-27T04:10:27.706Z,100093.02
2022-07-27T04:13:00.421Z,100096.55
2022-07-27T04:15:29.937Z,100091.34
2022-07-27T04:17:58.424Z,100098.02
2022-07-27T04:20:27.296Z,100099.20
2022-07-27T04:22:55.700Z,100103.89
2022-07-27T04:25:24.049Z,100105.35
2022-07-27T04:27:54.715Z,100111.38
2022-07-27T04:30:23.629Z,100107.45
2022-07-27T04:32:52.328Z,100108.59
2022-07-27T04:35:26.077Z,100108.76
2022-07-27T04:37:58.319Z,100112.52
2022-07-27T04:40:35.208Z,100116.53
2022-07-27T04:43:05.122Z,100112.46
2022-07-27T04:45:34.643Z,100116.29
2022-07-27T04:48:08.251Z,100113.79
2022-07-27T04:50:44.337Z,100113.66
2022-07-27T04:53:14.199Z,100111.63
2022-07-27T04:55:44.284Z,100112.04
2022-07-27T04:58:14.371Z,100111.59
2022-07-27T05:00:43.816Z,100104.39
2022-07-27T05:03:12.098Z,100106.29
2022-07-27T05:05:40.503Z,100110.54
2022-07-27T05:08:18.913Z,100111.48
2022-07-27T05:10:47.700Z,100116.80
2022-07-27T05:13:16.897Z,100121.86
2022-07-27T05:15:55.103Z,100121.51
2022-07-27T05:18:25.709Z,100123.41
2022-07-27T05:20:54.278Z,100118.05
2022-07-27T05:23:22.791Z,100119.22
2022-07-27T05:25:51.135Z,100110.11
2022-07-27T05:28:19.768Z,100112.02
2022-07-27T05:30:48.040Z,100116.74
2022-07-27T05:33:16.460Z,100113.53
2022-07-27T05:35:44.699Z,100113.50
2022-07-27T05:38:13.139Z,100112.84
2022-07-27T05:40:44.636Z,100109.29
2022-07-27T05:43:13.120Z,100108.42
2022-07-27T05:45:41.541Z,100105.78
2022-07-27T05:48:09.894Z,100104.20
2022-07-27T05:50:38.156Z,100109.88
2022-07-27T05:53:06.557Z,100112.75
2022-07-27T05:55:34.923Z,100109.32
2022-07-27T05:58:03.346Z,100112.14
